sensor_id;sensor_type;location;lat;lon;timestamp;pressure;altitude;pressure_sealevel;temperature;humidity
22031;BME280;11179;52.106;21.024;2023-03-01T00:01:51;101832.31;;;-4.96;62.89
22031;BME280;11179;52.106;21.024;2023-03-01T00:04:17;101844.72;;;-4.95;62.85
22031;BME280;11179;52.106;21.024;2023-03-01T00:06:42;101835.94;;;-4.97;62.96
22031;BME280;11179;52.106;21.024;2023-03-01T00:09:11;101826.81;;;-4.95;62.90
22031;BME280;11179;52.106;21.024;2023-03-01T00:11:36;101829.38;;;-4.93;62.87
22031;BME280;11179;52.106;21.024;2023-03-01T00:14:03;101818.66;;;-4.93;63.01
22031;BME280;11179;52.106;21.024;2023-03-01T00:16:41;101825.84;;;-4.94;63.09
22031;BME280;11179;52.106;21.024;2023-03-01T00:19:12;101828.38;;;-4.92;63.12
22031;BME280;11179;52.106;21.024;2023-03-01T00:21:37;101816.56;;;-4.90;63.11
22031;BME280;11179;52.106;21.024;2023-03-01T00:24:03;101815.47;;;-4.87;63.17
22031;BME280;11179;52.106;21.024;2023-03-01T00:26:29;101818.28;;;-4.89;63.11
22031;BME280;11179;52.106;21.024;2023-03-01T00:28:56;101816.69;;;-4.91;63.30
22031;BME280;11179;52.106;21.024;2023-03-01T00:31:23;101809.28;;;-4.88;63.40
22031;BME280;11179;52.106;21.024;2023-03-01T00:33:52;101819.50;;;-4.81;63.43
22031;BME280;11179;52.106;21.024;2023-03-01T00:36:17;101804.03;;;-4.89;63.60
22031;BME280;11179;52.106;21.024;2023-03-01T00:38:44;101811.34;;;-4.80;63.48
22031;BME280;11179;52.106;21.024;2023-03-01T00:41:12;101804.13;;;-4.79;63.58
22031;BME280;11179;52.106;21.024;2023-03-01T00:43:38;101801.44;;;-4.79;63.65
22031;BME280;11179;52.106;21.024;2023-03-01T00:46:06;101799.91;;;-4.82;63.66
22031;BME280;11179;52.106;21.024;2023-03-01T00:48:32;101795.50;;;-4.83;63.73
22031;BME280;11179;52.106;21.024;2023-03-01T00:51:07;101796.50;;;-4.84;63.92
22031;BME280;11179;52.106;21.024;2023-03-01T00:53:34;101790.72;;;-4.79;63.81
22031;BME280;11179;52.106;21.024;2023-03-01T00:55:59;101791.59;;;-4.79;63.98
22031;BME280;11179;52.106;21.024;2023-03-01T00:58:25;101790.63;;;-4.78;64.10
22031;BME280;11179;52.106;21.024;2023-03-01T01:00:50;101785.38;;;-4.79;64.11
22031;BME280;11179;52.106;21.024;2023-03-01T01:03:17;101788.22;;;-4.81;64.14
22031;BME280;11179;52.106;21.024;2023-03-01T01:05:42;101783.09;;;-4.84;64.13
22031;BME280;11179;52.106;21.024;2023-03-01T01:08:08;101779.44;;;-4.83;64.28
22031;BME280;11179;52.106;21.024;2023-03-01T01:10:34;101781.25;;;-4.83;64.38
22031;BME280;11179;52.106;21.024;2023-03-01T01:12:59;101781.50;;;-4.87;64.31
22031;BME280;11179;52.106;21.024;2023-03-01T01:15:25;101781.63;;;-4.88;64.28
22031;BME280;11179;52.106;21.024;2023-03-01T01:17:50;101787.97;;;-4.89;64.37
22031;BME280;11179;52.106;21.024;2023-03-01T01:20:15;101772.84;;;-4.90;64.40
22031;BME280;11179;52.106;21.024;2023-03-01T01:22:41;101784.44;;;-4.90;64.42
22031;BME280;11179;52.106;21.024;2023-03-01T01:25:06;101760.22;;;-4.99;64.39
22031;BME280;11179;52.106;21.024;2023-03-01T01:27:32;101765.91;;;-4.93;64.51
22031;BME280;11179;52.106;21.024;2023-03-01T01:29:57;101759.97;;;-4.96;64.54
22031;BME280;11179;52.106;21.024;2023-03-01T01:32:22;101774.09;;;-4.94;64.50
22031;BME280;11179;52.106;21.024;2023-03-01T01:34:48;101759.13;;;-4.97;64.38
22031;BME280;11179;52.106;21.024;2023-03-01T01:37:13;101752.78;;;-4.96;64.59
22031;BME280;11179;52.106;21.024;2023-03-01T01:39:39;101748.16;;;-4.94;64.61
22031;BME280;11179;52.106;21.024;2023-03-01T01:42:04;101748.53;;;-4.98;64.67
22031;BME280;11179;52.106;21.024;2023-03-01T01:44:30;101758.88;;;-4.94;64.74
22031;BME280;11179;52.106;21.024;2023-03-01T01:47:16;101758.50;;;-4.89;64.86
22031;BME280;11179;52.106;21.024;2023-03-01T01:49:54;101746.34;;;-4.93;64.76
22031;BME280;11179;52.106;21.024;2023-03-01T01:52:30;101747.31;;;-4.94;64.60
22031;BME280;11179;52.106;21.024;2023-03-01T01:55:07;101751.53;;;-4.92;64.77
22031;BME280;11179;52.106;21.024;2023-03-01T01:57:37;101725.03;;;-4.95;64.88
22031;BME280;11179;52.106;21.024;2023-03-01T02:00:07;101725.59;;;-4.91;64.85
22031;BME280;11179;52.106;21.024;2023-03-01T02:02:33;101722.94;;;-4.91;64.75
22031;BME280;11179;52.106;21.024;2023-03-01T02:05:05;101729.25;;;-4.92;64.77
22031;BME280;11179;52.106;21.024;2023-03-01T02:07:37;101735.75;;;-4.95;64.78
22031;BME280;11179;52.106;21.024;2023-03-01T02:10:04;101733.91;;;-4.94;64.77
22031;BME280;11179;52.106;21.024;2023-03-01T02:12:30;101733.91;;;-4.94;64.88
22031;BME280;11179;52.106;21.024;2023-03-01T02:14:55;101740.97;;;-4.93;64.96
22031;BME280;11179;52.106;21.024;2023-03-01T02:17:21;101745.47;;;-4.94;64.92
22031;BME280;11179;52.106;21.024;2023-03-01T02:22:37;101744.88;;;-4.97;64.99
22031;BME280;11179;52.106;21.024;2023-03-01T02:27:49;101738.78;;;-4.99;65.01
22031;BME280;11179;52.106;21.024;2023-03-01T02:30:18;101736.47;;;-5.04;64.96
22031;BME280;11179;52.106;21.024;2023-03-01T02:32:44;101728.56;;;-5.05;64.98
22031;BME280;11179;52.106;21.024;2023-03-01T02:35:12;101735.63;;;-5.04;65.06
22031;BME280;11179;52.106;21.024;2023-03-01T02:37:39;101719.81;;;-5.07;65.01
22031;BME280;11179;52.106;21.024;2023-03-01T02:40:09;101730.25;;;-5.04;65.04
22031;BME280;11179;52.106;21.024;2023-03-01T02:42:49;101725.88;;;-5.05;65.04
22031;BME280;11179;52.106;21.024;2023-03-01T02:45:16;101720.06;;;-5.10;65.08
22031;BME280;11179;52.106;21.024;2023-03-01T02:47:41;101717.25;;;-5.09;65.05
22031;BME280;11179;52.106;21.024;2023-03-01T02:53:01;101710.06;;;-5.08;65.00
22031;BME280;11179;52.106;21.024;2023-03-01T02:55:30;101710.94;;;-5.08;65.04
22031;BME280;11179;52.106;21.024;2023-03-01T02:57:56;101716.41;;;-5.09;65.00
22031;BME280;11179;52.106;21.024;2023-03-01T03:00:30;101717.84;;;-5.05;65.19
22031;BME280;11179;52.106;21.024;2023-03-01T03:02:58;101720.66;;;-5.07;65.10
22031;BME280;11179;52.106;21.024;2023-03-01T03:05:26;101717.13;;;-5.07;65.24
22031;BME280;11179;52.106;21.024;2023-03-01T03:07:52;101699.25;;;-5.07;65.25
22031;BME280;11179;52.106;21.024;2023-03-01T03:10:23;101704.44;;;-5.05;65.27
22031;BME280;11179;52.106;21.024;2023-03-01T03:12:51;101699.09;;;-5.05;65.12
22031;BME280;11179;52.106;21.024;2023-03-01T03:15:18;101702.50;;;-5.03;65.20
22031;BME280;11179;52.106;21.024;2023-03-01T03:17:43;101680.75;;;-5.10;65.07
22031;BME280;11179;52.106;21.024;2023-03-01T03:20:11;101683.28;;;-5.08;65.06
22031;BME280;11179;52.106;21.024;2023-03-01T03:22:40;101691.22;;;-5.07;65.10
22031;BME280;11179;52.106;21.024;2023-03-01T03:25:07;101687.81;;;-5.09;65.07
22031;BME280;11179;52.106;21.024;2023-03-01T03:27:37;101683.16;;;-5.07;65.17
22031;BME280;11179;52.106;21.024;2023-03-01T03:30:05;101689.09;;;-5.03;65.28
22031;BME280;11179;52.106;21.024;2023-03-01T03:32:36;101665.97;;;-5.04;65.58
22031;BME280;11179;52.106;21.024;2023-03-01T03:35:03;101673.41;;;-4.97;65.32
22031;BME280;11179;52.106;21.024;2023-03-01T03:37:40;101672.16;;;-4.93;65.44
22031;BME280;11179;52.106;21.024;2023-03-01T03:40:25;101654.00;;;-4.89;65.51
22031;BME280;11179;52.106;21.024;2023-03-01T03:42:50;101661.78;;;-4.86;65.56
22031;BME280;11179;52.106;21.024;2023-03-01T03:45:17;101670.56;;;-4.84;65.59
22031;BME280;11179;52.106;21.024;2023-03-01T03:47:42;101651.81;;;-4.84;65.61
22031;BME280;11179;52.106;21.024;2023-03-01T03:50:09;101653.97;;;-4.78;65.75
22031;BME280;11179;52.106;21.024;2023-03-01T03:52:35;101662.47;;;-4.73;65.76
22031;BME280;11179;52.106;21.024;2023-03-01T03:55:00;101662.47;;;-4.73;65.80
22031;BME280;11179;52.106;21.024;2023-03-01T03:57:25;101666.63;;;-4.69;65.71
22031;BME280;11179;52.106;21.024;2023-03-01T03:59:51;101667.34;;;-4.67;65.80
22031;BME280;11179;52.106;21.024;2023-03-01T04:02:16;101655.78;;;-4.67;65.97
22031;BME280;11179;52.106;21.024;2023-03-01T04:04:47;101651.84;;;-4.63;66.09
22031;BME280;11179;52.106;21.024;2023-03-01T04:07:15;101644.50;;;-4.61;66.14
22031;BME280;11179;52.106;21.024;2023-03-01T04:09:41;101646.09;;;-4.59;66.16
22031;BME280;11179;52.106;21.024;2023-03-01T04:12:07;101644.38;;;-4.60;66.07
22031;BME280;11179;52.106;21.024;2023-03-01T04:14:33;101646.69;;;-4.55;66.13
22031;BME280;11179;52.106;21.024;2023-03-01T04:16:59;101643.88;;;-4.54;66.09
22031;BME280;11179;52.106;21.024;2023-03-01T04:19:24;101640.91;;;-4.51;66.24
22031;BME280;11179;52.106;21.024;2023-03-01T04:21:49;101640.78;;;-4.49;66.16
22031;BME280;11179;52.106;21.024;2023-03-01T04:24:15;101641.53;;;-4.47;66.20
22031;BME280;11179;52.106;21.024;2023-03-01T04:26:40;101646.88;;;-4.47;65.75
22031;BME280;11179;52.106;21.024;2023-03-01T04:29:05;101659.44;;;-4.47;66.22
22031;BME280;11179;52.106;21.024;2023-03-01T04:31:31;101654.81;;;-4.45;66.21
22031;BME280;11179;52.106;21.024;2023-03-01T04:33:56;101655.66;;;-4.45;66.22
22031;BME280;11179;52.106;21.024;2023-03-01T04:36:26;101646.88;;;-4.47;66.21
22031;BME280;11179;52.106;21.024;2023-03-01T04:38:52;101641.66;;;-4.48;65.94
22031;BME280;11179;52.106;21.024;2023-03-01T04:41:19;101644.56;;;-4.40;66.09
22031;BME280;11179;52.106;21.024;2023-03-01T04:43:45;101639.88;;;-4.38;66.32
22031;BME280;11179;52.106;21.024;2023-03-01T04:46:12;101639.63;;;-4.35;66.17
22031;BME280;11179;52.106;21.024;2023-03-01T04:48:39;101642.19;;;-4.34;66.28
22031;BME280;11179;52.106;21.024;2023-03-01T04:51:06;101630.13;;;-4.39;66.27
22031;BME280;11179;52.106;21.024;2023-03-01T04:53:32;101636.81;;;-4.34;66.26
22031;BME280;11179;52.106;21.024;2023-03-01T04:55:58;101620.00;;;-4.36;66.14
22031;BME280;11179;52.106;21.024;2023-03-01T04:58:26;101621.59;;;-4.33;66.30
22031;BME280;11179;52.106;21.024;2023-03-01T05:00:52;101618.91;;;-4.33;66.21
22031;BME280;11179;52.106;21.024;2023-03-01T05:03:18;101614.53;;;-4.34;66.29
22031;BME280;11179;52.106;21.024;2023-03-01T05:05:45;101619.75;;;-4.33;66.36
22031;BME280;11179;52.106;21.024;2023-03-01T05:08:11;101622.06;;;-4.28;66.27
22031;BME280;11179;52.106;21.024;2023-03-01T05:10:47;101615.56;;;-4.26;66.41
22031;BME280;11179;52.106;21.024;2023-03-01T05:13:13;101620.78;;;-4.24;66.44
22031;BME280;11179;52.106;21.024;2023-03-01T05:15:45;101611.75;;;-4.23;66.41
22031;BME280;11179;52.106;21.024;2023-03-01T05:18:11;101606.41;;;-4.23;66.51
22031;BME280;11179;52.106;21.024;2023-03-01T05:20:37;101610.41;;;-4.18;66.47
22031;BME280;11179;52.106;21.024;2023-03-01T05:23:03;101618.31;;;-4.16;66.29
22031;BME280;11179;52.106;21.024;2023-03-01T05:25:31;101614.06;;;-4.19;66.39
22031;BME280;11179;52.106;21.024;2023-03-01T05:27:58;101621.97;;;-4.17;66.50
22031;BME280;11179;52.106;21.024;2023-03-01T05:30:24;101623.38;;;-4.13;66.54
22031;BME280;11179;52.106;21.024;2023-03-01T05:32:50;101626.53;;;-4.08;66.50
22031;BME280;11179;52.106;21.024;2023-03-01T05:35:21;101628.97;;;-4.05;66.32
22031;BME280;11179;52.106;21.024;2023-03-01T05:37:47;101640.16;;;-4.00;66.26
22031;BME280;11179;52.106;21.024;2023-03-01T05:40:16;101641.69;;;-3.97;66.59
22031;BME280;11179;52.106;21.024;2023-03-01T05:42:44;101643.00;;;-3.92;66.70
22031;BME280;11179;52.106;21.024;2023-03-01T05:45:10;101645.88;;;-3.84;66.67
22031;BME280;11179;52.106;21.024;2023-03-01T05:47:37;101652.16;;;-3.73;66.68
22031;BME280;11179;52.106;21.024;2023-03-01T05:50:03;101653.16;;;-3.65;66.61
22031;BME280;11179;52.106;21.024;2023-03-01T05:52:28;101655.03;;;-3.56;66.71
22031;BME280;11179;52.106;21.024;2023-03-01T05:54:53;101662.28;;;-3.47;66.51
22031;BME280;11179;52.106;21.024;2023-03-01T05:57:19;101657.94;;;-3.38;66.46
22031;BME280;11179;52.106;21.024;2023-03-01T05:59:45;101651.72;;;-3.29;66.42
22031;BME280;11179;52.106;21.024;2023-03-01T06:02:10;101653.44;;;-3.18;66.22
22031;BME280;11179;52.106;21.024;2023-03-01T06:04:35;101659.72;;;-3.08;66.18
22031;BME280;11179;52.106;21.024;2023-03-01T06:07:01;101653.50;;;-2.99;65.85
22031;BME280;11179;52.106;21.024;2023-03-01T06:09:26;101658.34;;;-2.83;66.07
22031;BME280;11179;52.106;21.024;2023-03-01T06:11:51;101652.81;;;-2.72;65.83
22031;BME280;11179;52.106;21.024;2023-03-01T06:14:17;101650.97;;;-2.62;65.77
22031;BME280;11179;52.106;21.024;2023-03-01T06:16:42;101657.50;;;-2.45;65.81
22031;BME280;11179;52.106;21.024;2023-03-01T06:19:07;101657.78;;;-2.29;65.61
22031;BME280;11179;52.106;21.024;2023-03-01T06:21:32;101658.56;;;-2.09;65.28
22031;BME280;11179;52.106;21.024;2023-03-01T06:23:58;101659.69;;;-1.92;65.10
22031;BME280;11179;52.106;21.024;2023-03-01T06:26:23;101654.69;;;-1.78;64.93
22031;BME280;11179;52.106;21.024;2023-03-01T06:28:48;101661.81;;;-1.59;64.78
22031;BME280;11179;52.106;21.024;2023-03-01T06:31:14;101659.22;;;-1.41;64.55
22031;BME280;11179;52.106;21.024;2023-03-01T06:33:39;101653.66;;;-1.12;64.37
22031;BME280;11179;52.106;21.024;2023-03-01T06:36:05;101644.00;;;-0.87;63.99
22031;BME280;11179;52.106;21.024;2023-03-01T06:38:31;101646.78;;;-0.62;63.67
22031;BME280;11179;52.106;21.024;2023-03-01T06:40:56;101647.94;;;-0.29;63.37
22031;BME280;11179;52.106;21.024;2023-03-01T06:43:22;101646.75;;;-0.00;63.01
22031;BME280;11179;52.106;21.024;2023-03-01T06:45:48;101647.13;;;0.31;62.60
22031;BME280;11179;52.106;21.024;2023-03-01T06:48:14;101649.28;;;0.53;61.91
22031;BME280;11179;52.106;21.024;2023-03-01T06:50:39;101638.44;;;0.79;61.51
22031;BME280;11179;52.106;21.024;2023-03-01T06:53:04;101645.78;;;1.03;61.25
22031;BME280;11179;52.106;21.024;2023-03-01T06:55:30;101630.22;;;1.21;60.62
22031;BME280;11179;52.106;21.024;2023-03-01T06:57:57;101639.91;;;1.48;60.39
22031;BME280;11179;52.106;21.024;2023-03-01T07:00:24;101641.59;;;1.73;59.98
22031;BME280;11179;52.106;21.024;2023-03-01T07:02:49;101649.22;;;2.02;59.72
22031;BME280;11179;52.106;21.024;2023-03-01T07:05:15;101644.41;;;2.28;59.28
22031;BME280;11179;52.106;21.024;2023-03-01T07:07:40;101632.84;;;2.51;58.47
22031;BME280;11179;52.106;21.024;2023-03-01T07:10:06;101635.81;;;2.72;57.86
22031;BME280;11179;52.106;21.024;2023-03-01T07:12:32;101634.56;;;2.91;57.31
22031;BME280;11179;52.106;21.024;2023-03-01T07:14:57;101639.84;;;3.15;56.73
22031;BME280;11179;52.106;21.024;2023-03-01T07:17:22;101636.97;;;3.40;56.46
22031;BME280;11179;52.106;21.024;2023-03-01T07:19:48;101627.69;;;3.57;55.58
22031;BME280;11179;52.106;21.024;2023-03-01T07:22:13;101631.56;;;3.77;55.29
22031;BME280;11179;52.106;21.024;2023-03-01T07:24:40;101631.81;;;3.90;54.57
22031;BME280;11179;52.106;21.024;2023-03-01T07:27:06;101629.97;;;4.05;54.37
22031;BME280;11179;52.106;21.024;2023-03-01T07:29:31;101634.63;;;4.34;53.99
22031;BME280;11179;52.106;21.024;2023-03-01T07:31:56;101619.88;;;4.58;53.45
22031;BME280;11179;52.106;21.024;2023-03-01T07:34:22;101623.25;;;4.90;53.17
22031;BME280;11179;52.106;21.024;2023-03-01T07:36:47;101620.41;;;5.19;52.54
22031;BME280;11179;52.106;21.024;2023-03-01T07:39:12;101602.88;;;5.43;51.81
22031;BME280;11179;52.106;21.024;2023-03-01T07:41:38;101605.00;;;5.47;50.91
22031;BME280;11179;52.106;21.024;2023-03-01T07:44:04;101608.28;;;5.58;50.78
22031;BME280;11179;52.106;21.024;2023-03-01T07:46:29;101608.63;;;5.76;50.30
22031;BME280;11179;52.106;21.024;2023-03-01T07:48:55;101604.59;;;5.93;49.92
22031;BME280;11179;52.106;21.024;2023-03-01T07:51:20;101598.38;;;6.06;49.26
22031;BME280;11179;52.106;21.024;2023-03-01T07:53:46;101607.34;;;6.28;48.99
22031;BME280;11179;52.106;21.024;2023-03-01T07:56:14;101602.41;;;6.38;48.72
22031;BME280;11179;52.106;21.024;2023-03-01T07:58:42;101608.34;;;6.48;47.88
22031;BME280;11179;52.106;21.024;2023-03-01T08:01:10;101608.56;;;6.53;48.12
22031;BME280;11179;52.106;21.024;2023-03-01T08:03:36;101604.06;;;6.73;47.68
22031;BME280;11179;52.106;21.024;2023-03-01T08:06:02;101591.75;;;6.90;46.90
22031;BME280;11179;52.106;21.024;2023-03-01T08:08:28;101606.09;;;7.19;46.40
22031;BME280;11179;52.106;21.024;2023-03-01T08:10:56;101606.19;;;7.52;46.32
22031;BME280;11179;52.106;21.024;2023-03-01T08:13:22;101607.69;;;7.74;45.96
22031;BME280;11179;52.106;21.024;2023-03-01T08:15:50;101607.28;;;7.97;45.32
22031;BME280;11179;52.106;21.024;2023-03-01T08:18:17;101603.25;;;8.13;44.84
22031;BME280;11179;52.106;21.024;2023-03-01T08:20:42;101589.81;;;8.24;44.17
22031;BME280;11179;52.106;21.024;2023-03-01T08:23:08;101605.75;;;8.47;44.03
22031;BME280;11179;52.106;21.024;2023-03-01T08:25:33;101604.66;;;8.61;43.83
22031;BME280;11179;52.106;21.024;2023-03-01T08:27:58;101615.16;;;8.78;43.42
22031;BME280;11179;52.106;21.024;2023-03-01T08:30:24;101605.63;;;8.87;42.83
22031;BME280;11179;52.106;21.024;2023-03-01T08:32:50;101607.53;;;8.86;42.75
22031;BME280;11179;52.106;21.024;2023-03-01T08:35:16;101605.16;;;8.96;42.45
22031;BME280;11179;52.106;21.024;2023-03-01T08:37:43;101592.03;;;9.12;41.83
22031;BME280;11179;52.106;21.024;2023-03-01T08:40:09;101598.22;;;9.32;41.64
22031;BME280;11179;52.106;21.024;2023-03-01T08:42:36;101607.25;;;9.39;41.37
22031;BME280;11179;52.106;21.024;2023-03-01T08:45:02;101600.84;;;9.52;41.08
22031;BME280;11179;52.106;21.024;2023-03-01T08:47:28;101593.66;;;9.57;40.88
22031;BME280;11179;52.106;21.024;2023-03-01T08:49:53;101606.94;;;9.54;40.85
22031;BME280;11179;52.106;21.024;2023-03-01T08:52:20;101610.53;;;9.54;40.54
22031;BME280;11179;52.106;21.024;2023-03-01T08:54:47;101604.38;;;9.27;40.02
22031;BME280;11179;52.106;21.024;2023-03-01T08:57:13;101601.94;;;9.06;40.17
22031;BME280;11179;52.106;21.024;2023-03-01T08:59:38;101602.63;;;9.01;40.62
22031;BME280;11179;52.106;21.024;2023-03-01T09:02:04;101609.31;;;9.05;40.54
22031;BME280;11179;52.106;21.024;2023-03-01T09:04:31;101609.16;;;8.94;40.15
22031;BME280;11179;52.106;21.024;2023-03-01T09:06:56;101612.31;;;8.97;40.52
22031;BME280;11179;52.106;21.024;2023-03-01T09:09:21;101609.78;;;8.96;40.34
22031;BME280;11179;52.106;21.024;2023-03-01T09:11:46;101604.28;;;9.02;40.59
22031;BME280;11179;52.106;21.024;2023-03-01T09:14:13;101608.66;;;9.17;40.19
22031;BME280;11179;52.106;21.024;2023-03-01T09:19:14;101617.72;;;9.17;40.24
22031;BME280;11179;52.106;21.024;2023-03-01T09:21:40;101610.16;;;9.13;40.22
22031;BME280;11179;52.106;21.024;2023-03-01T09:24:07;101605.38;;;8.95;40.29
22031;BME280;11179;52.106;21.024;2023-03-01T09:26:37;101602.00;;;8.99;40.63
22031;BME280;11179;52.106;21.024;2023-03-01T09:29:02;101602.53;;;9.15;40.34
22031;BME280;11179;52.106;21.024;2023-03-01T09:31:28;101604.94;;;8.98;40.39
22031;BME280;11179;52.106;21.024;2023-03-01T09:33:53;101600.53;;;8.97;40.63
22031;BME280;11179;52.106;21.024;2023-03-01T09:36:21;101592.09;;;8.98;40.24
22031;BME280;11179;52.106;21.024;2023-03-01T09:38:47;101595.63;;;9.05;40.01
22031;BME280;11179;52.106;21.024;2023-03-01T09:47:03;101569.03;;;8.75;40.77
22031;BME280;11179;52.106;21.024;2023-03-01T09:49:31;101578.94;;;8.76;40.67
22031;BME280;11179;52.106;21.024;2023-03-01T09:52:12;101581.84;;;8.81;40.41
22031;BME280;11179;52.106;21.024;2023-03-01T09:54:44;101571.72;;;8.81;40.45
22031;BME280;11179;52.106;21.024;2023-03-01T10:02:48;101570.28;;;8.72;40.97
22031;BME280;11179;52.106;21.024;2023-03-01T10:05:50;101573.50;;;8.62;40.95
22031;BME280;11179;52.106;21.024;2023-03-01T10:08:40;101569.50;;;8.58;40.82
22031;BME280;11179;52.106;21.024;2023-03-01T10:11:38;101559.94;;;8.23;41.38
22031;BME280;11179;52.106;21.024;2023-03-01T10:14:15;101561.19;;;8.07;41.65
22031;BME280;11179;52.106;21.024;2023-03-01T10:17:00;101561.81;;;8.02;41.96
22031;BME280;11179;52.106;21.024;2023-03-01T10:19:41;101558.06;;;7.97;42.15
22031;BME280;11179;52.106;21.024;2023-03-01T10:22:27;101552.38;;;7.92;42.45
22031;BME280;11179;52.106;21.024;2023-03-01T10:24:54;101546.03;;;8.05;42.29
22031;BME280;11179;52.106;21.024;2023-03-01T10:27:25;101547.28;;;8.15;42.08
22031;BME280;11179;52.106;21.024;2023-03-01T10:30:12;101535.94;;;8.18;42.17
22031;BME280;11179;52.106;21.024;2023-03-01T10:32:41;101538.84;;;8.37;42.18
22031;BME280;11179;52.106;21.024;2023-03-01T10:35:21;101524.31;;;8.36;42.26
22031;BME280;11179;52.106;21.024;2023-03-01T10:40:22;101522.84;;;8.14;42.44
22031;BME280;11179;52.106;21.024;2023-03-01T10:42:48;101532.34;;;8.11;42.89
22031;BME280;11179;52.106;21.024;2023-03-01T10:45:30;101532.56;;;8.10;42.86
22031;BME280;11179;52.106;21.024;2023-03-01T10:50:33;101531.31;;;7.92;43.12
22031;BME280;11179;52.106;21.024;2023-03-01T10:53:04;101520.56;;;8.04;43.28
22031;BME280;11179;52.106;21.024;2023-03-01T10:55:38;101518.25;;;8.01;43.31
22031;BME280;11179;52.106;21.024;2023-03-01T10:58:21;101518.28;;;7.94;43.33
22031;BME280;11179;52.106;21.024;2023-03-01T11:00:52;101518.31;;;7.81;43.25
22031;BME280;11179;52.106;21.024;2023-03-01T11:03:24;101515.38;;;7.70;43.59
22031;BME280;11179;52.106;21.024;2023-03-01T11:11:16;101518.06;;;7.96;43.71
22031;BME280;11179;52.106;21.024;2023-03-01T11:13:54;101522.50;;;7.97;43.56
22031;BME280;11179;52.106;21.024;2023-03-01T11:16:35;101516.19;;;7.77;43.89
22031;BME280;11179;52.106;21.024;2023-03-01T11:21:38;101512.00;;;7.81;43.76
22031;BME280;11179;52.106;21.024;2023-03-01T11:24:10;101515.78;;;7.73;44.07
22031;BME280;11179;52.106;21.024;2023-03-01T11:26:41;101494.56;;;7.69;44.16
22031;BME280;11179;52.106;21.024;2023-03-01T11:29:17;101506.94;;;7.78;44.46
22031;BME280;11179;52.106;21.024;2023-03-01T11:31:47;101506.09;;;7.84;44.28
22031;BME280;11179;52.106;21.024;2023-03-01T11:34:27;101499.16;;;7.81;44.14
22031;BME280;11179;52.106;21.024;2023-03-01T11:36:59;101482.97;;;7.80;44.23
22031;BME280;11179;52.106;21.024;2023-03-01T11:39:31;101490.31;;;7.86;44.29
22031;BME280;11179;52.106;21.024;2023-03-01T11:44:37;101493.03;;;7.86;44.15
22031;BME280;11179;52.106;21.024;2023-03-01T11:47:29;101496.22;;;7.83;44.60
22031;BME280;11179;52.106;21.024;2023-03-01T11:50:13;101487.81;;;7.84;44.68
22031;BME280;11179;52.106;21.024;2023-03-01T11:55:55;101488.44;;;7.60;45.05
22031;BME280;11179;52.106;21.024;2023-03-01T12:04:02;101494.31;;;7.77;44.82
22031;BME280;11179;52.106;21.024;2023-03-01T12:06:56;101501.06;;;7.81;44.86
22031;BME280;11179;52.106;21.024;2023-03-01T12:15:04;101491.16;;;7.93;44.75
22031;BME280;11179;52.106;21.024;2023-03-01T12:20:24;101498.47;;;7.99;45.03
22031;BME280;11179;52.106;21.024;2023-03-01T12:31:05;101478.75;;;7.77;45.55
22031;BME280;11179;52.106;21.024;2023-03-01T12:36:18;101476.44;;;7.74;45.46
22031;BME280;11179;52.106;21.024;2023-03-01T12:41:44;101483.34;;;7.90;45.33
22031;BME280;11179;52.106;21.024;2023-03-01T12:46:58;101485.06;;;7.84;45.70
22031;BME280;11179;52.106;21.024;2023-03-01T12:49:34;101466.78;;;7.85;45.64
22031;BME280;11179;52.106;21.024;2023-03-01T12:52:11;101464.47;;;7.82;45.51
22031;BME280;11179;52.106;21.024;2023-03-01T12:54:39;101461.09;;;7.73;45.82
22031;BME280;11179;52.106;21.024;2023-03-01T13:00:22;101460.47;;;7.78;46.06
22031;BME280;11179;52.106;21.024;2023-03-01T13:03:25;101462.78;;;7.81;46.08
22031;BME280;11179;52.106;21.024;2023-03-01T13:06:04;101460.88;;;7.81;45.79
22031;BME280;11179;52.106;21.024;2023-03-01T13:11:28;101460.25;;;7.79;46.01
22031;BME280;11179;52.106;21.024;2023-03-01T13:16:49;101451.41;;;7.84;46.12
22031;BME280;11179;52.106;21.024;2023-03-01T13:19:17;101456.47;;;7.80;46.09
22031;BME280;11179;52.106;21.024;2023-03-01T13:21:44;101452.25;;;7.78;46.48
22031;BME280;11179;52.106;21.024;2023-03-01T13:24:49;101449.53;;;7.78;46.29
22031;BME280;11179;52.106;21.024;2023-03-01T13:27:25;101448.47;;;7.79;46.67
22031;BME280;11179;52.106;21.024;2023-03-01T13:29:58;101449.31;;;7.73;46.71
22031;BME280;11179;52.106;21.024;2023-03-01T13:32:35;101446.19;;;7.69;46.56
22031;BME280;11179;52.106;21.024;2023-03-01T13:37:40;101441.34;;;7.64;46.71
22031;BME280;11179;52.106;21.024;2023-03-01T13:42:43;101434.19;;;7.63;47.10
22031;BME280;11179;52.106;21.024;2023-03-01T13:45:21;101429.19;;;7.54;47.30
22031;BME280;11179;52.106;21.024;2023-03-01T13:47:54;101419.09;;;7.41;47.46
22031;BME280;11179;52.106;21.024;2023-03-01T13:50:25;101417.41;;;7.47;47.54
22031;BME280;11179;52.106;21.024;2023-03-01T13:52:52;101418.44;;;7.46;47.64
22031;BME280;11179;52.106;21.024;2023-03-01T13:55:23;101414.47;;;7.35;47.56
22031;BME280;11179;52.106;21.024;2023-03-01T13:58:00;101426.47;;;7.41;47.71
22031;BME280;11179;52.106;21.024;2023-03-01T14:00:37;101412.41;;;7.31;47.81
22031;BME280;11179;52.106;21.024;2023-03-01T14:03:04;101419.31;;;7.33;48.02
22031;BME280;11179;52.106;21.024;2023-03-01T14:05:31;101410.06;;;7.21;47.78
22031;BME280;11179;52.106;21.024;2023-03-01T14:07:56;101422.91;;;7.27;47.96
22031;BME280;11179;52.106;21.024;2023-03-01T14:10:26;101405.66;;;7.20;48.23
22031;BME280;11179;52.106;21.024;2023-03-01T14:15:46;101404.41;;;7.22;48.47
22031;BME280;11179;52.106;21.024;2023-03-01T14:18:21;101404.81;;;7.19;48.28
22031;BME280;11179;52.106;21.024;2023-03-01T14:20:50;101412.16;;;7.19;48.12
22031;BME280;11179;52.106;21.024;2023-03-01T14:23:21;101414.91;;;7.19;48.46